createdAt,value
2019-03-23T00:01:55.770Z,68.62
2019-03-23T00:04:59.091Z,69.07
2019-03-23T00:08:02.415Z,67.15
2019-03-23T00:11:05.813Z,66.25
2019-03-23T00:14:09.152Z,61.70
2019-03-23T00:17:12.488Z,59.55
2019-03-23T00:20:16.289Z,56.33
2019-03-23T00:23:19.621Z,61.60
2019-03-23T00:26:22.927Z,57.38
2019-03-23T00:29:26.266Z,60.70
2019-03-23T00:32:29.571Z,68.35
2019-03-23T00:35:32.899Z,63.45
2019-03-23T00:38:36.225Z,53.25
2019-03-23T00:41:39.554Z,58.90
2019-03-23T00:44:42.907Z,51.02
2019-03-23T00:47:46.191Z,57.50
2019-03-23T00:50:49.604Z,54.33
2019-03-23T00:53:52.966Z,50.75
2019-03-23T00:56:56.299Z,49.83
2019-03-23T00:59:59.632Z,46.75
2019-03-23T01:03:02.960Z,45.80
2019-03-23T01:06:06.282Z,43.23
2019-03-23T01:09:09.624Z,46.10
2019-03-23T01:12:12.923Z,49.98
2019-03-23T01:15:16.250Z,51.30
2019-03-23T01:18:19.548Z,50.78
2019-03-23T01:21:23.150Z,50.00
2019-03-23T01:24:26.470Z,52.23
2019-03-23T01:27:32.928Z,41.18
2019-03-23T01:30:36.555Z,49.98
2019-03-23T01:33:43.395Z,46.83
2019-03-23T01:36:47.181Z,46.92
2019-03-23T01:39:50.554Z,49.85
2019-03-23T01:42:54.256Z,46.48
2019-03-23T01:45:58.172Z,48.63
2019-03-23T01:49:02.388Z,47.00
2019-03-23T01:52:06.465Z,49.53
2019-03-23T01:55:10.105Z,43.08
2019-03-23T01:58:14.282Z,46.45
2019-03-23T02:01:18.628Z,45.10
2019-03-23T02:04:22.457Z,47.67
2019-03-23T02:07:25.791Z,46.70
2019-03-23T02:10:30.218Z,46.75
2019-03-23T02:13:34.002Z,52.88
2019-03-23T02:16:39.747Z,44.53
2019-03-23T02:19:43.428Z,50.83
2019-03-23T02:22:49.459Z,46.98
2019-03-23T02:25:53.358Z,47.20
2019-03-23T02:28:57.343Z,46.23
2019-03-23T02:32:01.616Z,44.00
2019-03-23T02:35:09.056Z,48.50
2019-03-23T02:38:12.400Z,46.68
2019-03-23T02:41:15.682Z,43.50
2019-03-23T02:44:19.089Z,40.78
2019-03-23T02:47:22.427Z,44.95
2019-03-23T02:50:25.850Z,46.88
2019-03-23T02:53:29.182Z,45.17
2019-03-23T02:56:32.520Z,55.90
2019-03-23T02:59:35.846Z,56.02
2019-03-23T03:02:39.188Z,44.58
2019-03-23T03:05:42.510Z,38.73
2019-03-23T03:08:45.828Z,42.35
2019-03-23T03:11:49.147Z,42.48
2019-03-23T03:14:52.489Z,45.20
2019-03-23T03:17:55.815Z,44.67
2019-03-23T03:20:59.389Z,40.85
2019-03-23T03:24:02.701Z,53.60
2019-03-23T03:27:06.018Z,38.45
2019-03-23T03:30:11.146Z,39.15
2019-03-23T03:33:14.443Z,38.55
2019-03-23T03:36:17.753Z,38.38
2019-03-23T03:39:21.061Z,40.38
2019-03-23T03:42:24.449Z,38.83
2019-03-23T03:45:29.103Z,38.58
2019-03-23T03:48:32.413Z,35.60
2019-03-23T03:51:35.724Z,39.75
2019-03-23T03:54:39.020Z,34.08
2019-03-23T03:57:42.332Z,46.10
2019-03-23T04:00:45.624Z,34.53
2019-03-23T04:03:48.938Z,40.00
2019-03-23T04:06:52.237Z,44.42
2019-03-23T04:09:55.565Z,34.92
2019-03-23T04:12:59.068Z,37.00
2019-03-23T04:16:02.365Z,41.08
2019-03-23T04:19:05.693Z,37.88
2019-03-23T04:22:08.974Z,37.30
2019-03-23T04:25:12.301Z,38.25
2019-03-23T04:28:15.627Z,38.40
2019-03-23T04:31:18.939Z,39.48
2019-03-23T04:34:22.261Z,41.42
2019-03-23T04:37:25.567Z,39.90
2019-03-23T04:40:28.865Z,41.23
2019-03-23T04:43:32.169Z,34.80
2019-03-23T04:46:35.501Z,41.60
2019-03-23T04:49:38.829Z,40.52
2019-03-23T04:52:42.131Z,39.88
2019-03-23T04:55:45.440Z,35.83
2019-03-23T04:58:48.739Z,36.45
2019-03-23T05:01:52.069Z,38.95
2019-03-23T05:04:55.369Z,37.38
2019-03-23T05:07:58.701Z,29.87
2019-03-23T05:11:02.042Z,32.63
2019-03-23T05:14:05.344Z,40.05
2019-03-23T05:17:08.692Z,37.35
2019-03-23T05:20:13.728Z,35.25
2019-03-23T05:23:17.030Z,36.77
2019-03-23T05:26:20.343Z,36.45
2019-03-23T05:29:23.660Z,32.35
2019-03-23T05:32:27.014Z,33.50
2019-03-23T05:35:30.323Z,26.75
2019-03-23T05:38:43.613Z,33.78
2019-03-23T05:41:38.703Z,28.23
2019-03-23T05:44:42.478Z,28.38
2019-03-23T05:47:45.796Z,28.38
2019-03-23T05:50:49.105Z,25.82
2019-03-23T05:53:52.437Z,25.65
2019-03-23T05:56:55.790Z,29.45
2019-03-23T05:59:59.108Z,27.52
2019-03-23T06:03:02.432Z,25.08
2019-03-23T06:06:05.733Z,24.47
2019-03-23T06:09:09.059Z,22.30
2019-03-23T06:12:12.372Z,24.77
2019-03-23T06:15:15.676Z,24.95
2019-03-23T06:18:19.022Z,22.37
2019-03-23T06:21:22.321Z,21.62
2019-03-23T06:24:25.657Z,22.35
2019-03-23T06:27:28.966Z,20.20
2019-03-23T06:30:32.308Z,22.67
2019-03-23T06:33:35.653Z,29.52
2019-03-23T06:36:39.107Z,21.87
2019-03-23T06:39:42.505Z,25.90
2019-03-23T06:42:45.923Z,20.00
2019-03-23T06:45:49.354Z,21.68
2019-03-23T06:48:52.751Z,21.30
2019-03-23T06:51:56.175Z,29.52
2019-03-23T06:54:59.563Z,21.80
2019-03-23T06:58:02.963Z,20.75
2019-03-23T07:01:06.383Z,20.23
2019-03-23T07:04:09.806Z,17.70
2019-03-23T07:07:13.218Z,16.97
2019-03-23T07:10:16.621Z,20.48
2019-03-23T07:13:20.023Z,16.93
2019-03-23T07:16:24.942Z,25.80
2019-03-23T07:19:28.397Z,17.75
2019-03-23T07:22:31.832Z,20.77
2019-03-23T07:25:35.246Z,17.65
2019-03-23T07:28:38.644Z,20.85
2019-03-23T07:31:42.055Z,16.62
2019-03-23T07:34:45.458Z,18.35
2019-03-23T07:37:48.873Z,21.57
2019-03-23T07:40:52.278Z,15.05
2019-03-23T07:43:55.689Z,17.92
2019-03-23T07:46:59.104Z,21.35
2019-03-23T07:50:02.585Z,19.10
2019-03-23T07:53:06.247Z,18.12
2019-03-23T07:56:09.645Z,21.95
2019-03-23T07:59:13.062Z,20.62
2019-03-23T08:02:16.482Z,13.08
2019-03-23T08:05:19.884Z,19.77
2019-03-23T08:08:23.311Z,14.28
2019-03-23T08:11:26.707Z,17.45
2019-03-23T08:14:30.111Z,19.17
2019-03-23T08:17:33.552Z,21.35
2019-03-23T08:20:36.954Z,16.32
2019-03-23T08:23:40.393Z,19.82
2019-03-23T08:26:43.785Z,13.25
2019-03-23T08:29:47.214Z,18.00
2019-03-23T08:32:50.624Z,21.60
2019-03-23T08:35:53.997Z,18.57
2019-03-23T08:38:57.407Z,19.40
2019-03-23T08:42:00.813Z,19.12
2019-03-23T08:45:05.599Z,15.68
2019-03-23T08:48:09.018Z,16.30
2019-03-23T08:51:12.415Z,13.22
2019-03-23T08:54:15.842Z,16.40
2019-03-23T08:57:19.227Z,10.50
2019-03-23T09:00:22.631Z,11.57
2019-03-23T09:03:26.042Z,14.23
2019-03-23T09:06:29.418Z,12.50
2019-03-23T09:09:32.821Z,11.63
2019-03-23T09:12:36.221Z,15.15
2019-03-23T09:15:39.632Z,13.08
2019-03-23T09:18:43.121Z,10.80
2019-03-23T09:21:46.510Z,12.50
2019-03-23T09:24:49.917Z,15.85
2019-03-23T09:27:53.321Z,14.03
2019-03-23T09:30:56.745Z,17.10
2019-03-23T09:34:00.178Z,16.25
2019-03-23T09:37:03.549Z,16.25
2019-03-23T09:40:10.953Z,17.65
2019-03-23T09:43:12.499Z,19.67
2019-03-23T09:46:15.919Z,17.17
2019-03-23T09:49:19.324Z,19.07
2019-03-23T09:52:22.716Z,23.52
2019-03-23T09:55:28.667Z,20.68
2019-03-23T09:58:32.350Z,20.95
2019-03-23T10:01:35.747Z,25.15
2019-03-23T10:04:39.156Z,19.98
2019-03-23T10:07:42.570Z,27.35
2019-03-23T10:10:45.947Z,26.93
2019-03-23T10:13:49.351Z,22.52
2019-03-23T10:16:52.773Z,29.30
2019-03-23T10:19:56.195Z,25.23
2019-03-23T10:22:59.604Z,31.40
2019-03-23T10:26:03.033Z,28.00
2019-03-23T10:29:06.500Z,23.85
2019-03-23T10:32:09.950Z,25.48
2019-03-23T10:35:13.363Z,24.12
2019-03-23T10:38:16.783Z,26.57
2019-03-23T10:41:20.202Z,26.48
2019-03-23T10:44:23.607Z,25.50
2019-03-23T10:47:27.082Z,25.48
2019-03-23T10:50:30.505Z,26.45
2019-03-23T10:53:33.907Z,29.95
2019-03-23T10:56:37.399Z,26.42
2019-03-23T10:59:41.101Z,27.10
2019-03-23T11:02:44.517Z,29.23
2019-03-23T11:05:48.260Z,32.70
2019-03-23T11:08:51.767Z,27.58
2019-03-23T11:11:55.171Z,28.40
2019-03-23T11:14:58.568Z,31.52
2019-03-23T11:18:02.043Z,30.57
2019-03-23T11:21:05.484Z,30.27
2019-03-23T11:24:08.881Z,32.45
2019-03-23T11:27:12.268Z,35.75
2019-03-23T11:30:15.682Z,31.12
2019-03-23T11:33:19.068Z,30.95
2019-03-23T11:36:22.512Z,32.75
2019-03-23T11:39:25.963Z,35.15
2019-03-23T11:42:29.382Z,28.30
2019-03-23T11:45:32.756Z,33.28
2019-03-23T11:48:36.169Z,34.55
2019-03-23T11:51:39.565Z,31.40
2019-03-23T11:54:42.970Z,31.45
2019-03-23T11:57:46.384Z,35.10
2019-03-23T12:00:49.809Z,31.48
2019-03-23T12:03:53.179Z,35.10
2019-03-23T12:06:56.569Z,31.37
2019-03-23T12:10:00.041Z,33.73
2019-03-23T12:13:03.461Z,35.33
2019-03-23T12:16:06.868Z,32.95
2019-03-23T12:19:10.270Z,34.50
2019-03-23T12:22:13.677Z,29.70
2019-03-23T12:25:17.078Z,30.97
2019-03-23T12:28:20.477Z,27.42
2019-03-23T12:31:23.903Z,30.97
2019-03-23T12:34:27.347Z,28.85
2019-03-23T12:37:32.501Z,27.73
2019-03-23T12:40:36.558Z,27.60
2019-03-23T12:43:40.006Z,28.30
2019-03-23T12:46:48.199Z,33.95
2019-03-23T12:49:48.528Z,26.87
2019-03-23T12:52:51.947Z,33.20
2019-03-23T12:55:55.334Z,36.03
2019-03-23T12:58:58.763Z,41.95
2019-03-23T13:02:02.165Z,43.15
2019-03-23T13:05:06.773Z,46.53
2019-03-23T13:08:10.193Z,52.75
2019-03-23T13:11:23.128Z,56.02
2019-03-23T13:14:18.714Z,52.98
2019-03-23T13:17:22.115Z,60.05
2019-03-23T13:20:25.639Z,66.40
2019-03-23T13:23:29.035Z,63.42
2019-03-23T13:26:32.421Z,70.17
2019-03-23T13:29:35.821Z,67.87
2019-03-23T13:32:39.209Z,75.70
2019-03-23T13:35:42.627Z,72.37
2019-03-23T13:38:46.046Z,76.87
2019-03-23T13:41:50.372Z,73.87
2019-03-23T13:44:53.791Z,83.20
2019-03-23T13:47:57.195Z,91.22
2019-03-23T13:51:02.281Z,84.58
2019-03-23T13:54:05.603Z,102.47
2019-03-23T13:57:08.997Z,97.22
2019-03-23T14:00:12.407Z,99.77
2019-03-23T14:03:15.807Z,99.75
2019-03-23T14:06:19.232Z,100.05
2019-03-23T14:09:22.668Z,100.25
2019-03-23T14:12:26.044Z,96.65
2019-03-23T14:15:29.433Z,94.35
2019-03-23T14:18:32.837Z,91.50
2019-03-23T14:21:36.248Z,91.65
2019-03-23T14:24:39.660Z,95.80
2019-03-23T14:27:43.059Z,87.85
2019-03-23T14:30:46.470Z,81.15
2019-03-23T14:33:49.868Z,76.25
2019-03-23T14:36:53.314Z,80.03
2019-03-23T14:39:56.742Z,77.45
2019-03-23T14:43:00.195Z,74.65
2019-03-23T14:46:03.598Z,76.33
2019-03-23T14:49:06.911Z,72.47
2019-03-23T14:52:10.236Z,72.25
2019-03-23T14:55:13.571Z,74.32
2019-03-23T14:58:16.885Z,73.87
2019-03-23T15:01:20.199Z,78.15
2019-03-23T15:04:23.775Z,79.50
2019-03-23T15:07:27.087Z,77.67
2019-03-23T15:10:30.410Z,79.90
2019-03-23T15:13:33.726Z,81.05
2019-03-23T15:16:37.040Z,76.95
2019-03-23T15:19:40.334Z,81.80
2019-03-23T15:22:43.645Z,84.83
2019-03-23T15:25:46.974Z,83.80
2019-03-23T15:28:50.288Z,87.05
2019-03-23T15:31:53.791Z,92.25
2019-03-23T15:34:57.103Z,81.42
2019-03-23T15:38:01.914Z,95.22
2019-03-23T15:41:05.232Z,96.30
2019-03-23T15:44:08.534Z,100.87
2019-03-23T15:47:11.924Z,96.12
2019-03-23T15:50:15.246Z,90.57
2019-03-23T15:53:18.559Z,96.92
2019-03-23T15:56:21.886Z,100.53
2019-03-23T15:59:25.200Z,100.72
2019-03-23T16:02:28.506Z,93.33
2019-03-23T16:05:31.815Z,105.10
2019-03-23T16:08:35.132Z,100.35
2019-03-23T16:11:38.444Z,99.20
2019-03-23T16:14:41.750Z,92.90
2019-03-23T16:17:45.062Z,93.58
2019-03-23T16:20:48.372Z,85.60
2019-03-23T16:23:51.689Z,86.35
2019-03-23T16:26:55.014Z,93.92
2019-03-23T16:29:58.310Z,84.47
2019-03-23T16:33:01.843Z,81.63
2019-03-23T16:36:05.143Z,94.00
2019-03-23T16:39:08.474Z,77.65
2019-03-23T16:42:11.841Z,86.17
2019-03-23T16:45:15.139Z,83.07
2019-03-23T16:48:18.447Z,81.60
2019-03-23T16:51:21.739Z,74.87
2019-03-23T16:54:25.067Z,79.00
2019-03-23T16:57:28.393Z,75.67
2019-03-23T17:00:36.037Z,76.20
2019-03-23T17:03:39.356Z,76.60
2019-03-23T17:06:46.556Z,75.17
2019-03-23T17:09:47.769Z,72.03
2019-03-23T17:12:55.382Z,74.70
2019-03-23T17:15:56.161Z,78.78
2019-03-23T17:18:59.514Z,67.87
2019-03-23T17:22:02.919Z,73.78
2019-03-23T17:25:06.638Z,73.20
2019-03-23T17:28:09.946Z,77.25
2019-03-23T17:31:13.328Z,74.20
2019-03-23T17:34:16.667Z,78.42
2019-03-23T17:37:20.049Z,74.80
2019-03-23T17:40:24.620Z,78.70
2019-03-23T17:43:27.874Z,72.72
2019-03-23T17:46:31.186Z,74.55
2019-03-23T17:49:34.513Z,81.02
2019-03-23T17:52:37.826Z,73.22
2019-03-23T17:55:41.136Z,78.78
2019-03-23T17:58:44.435Z,76.60
2019-03-23T18:01:47.824Z,76.12
2019-03-23T18:04:51.167Z,76.07
2019-03-23T18:07:54.835Z,75.03
2019-03-23T18:10:58.684Z,76.15
2019-03-23T18:14:06.514Z,84.85
2019-03-23T18:17:10.736Z,78.42
2019-03-23T18:20:14.646Z,76.65
2019-03-23T18:23:18.817Z,84.90
2019-03-23T18:26:22.290Z,82.15
2019-03-23T18:29:25.587Z,80.42
2019-03-23T18:32:29.397Z,83.45
2019-03-23T18:35:33.829Z,88.52
2019-03-23T18:38:39.493Z,88.33
2019-03-23T18:41:42.827Z,96.00
2019-03-23T18:44:46.130Z,87.27
2019-03-23T18:47:49.446Z,93.30
2019-03-23T18:50:54.262Z,93.05
2019-03-23T18:53:58.558Z,88.58
2019-03-23T18:57:02.575Z,90.65
2019-03-23T19:00:08.506Z,97.35
2019-03-23T19:03:12.070Z,93.03
2019-03-23T19:06:16.086Z,95.85
2019-03-23T19:09:20.571Z,95.12
2019-03-23T19:12:23.934Z,93.30
2019-03-23T19:15:27.420Z,87.92
2019-03-23T19:18:30.752Z,87.92
2019-03-23T19:21:34.129Z,86.22
2019-03-23T19:24:38.530Z,87.85
2019-03-23T19:27:41.850Z,93.05
2019-03-23T19:30:45.227Z,100.60
2019-03-23T19:33:48.564Z,98.90
2019-03-23T19:36:51.892Z,92.47
2019-03-23T19:39:55.228Z,89.15
2019-03-23T19:42:59.694Z,91.65
2019-03-23T19:46:03.322Z,86.45
2019-03-23T19:49:06.620Z,89.95
2019-03-23T19:52:09.966Z,96.40
2019-03-23T19:55:13.359Z,93.20
2019-03-23T19:58:16.800Z,90.03
2019-03-23T20:01:20.208Z,90.25
2019-03-23T20:04:23.570Z,88.90
2019-03-23T20:07:33.002Z,92.37
2019-03-23T20:10:31.950Z,89.42
2019-03-23T20:13:35.426Z,183.15
2019-03-23T20:16:38.786Z,130.18
2019-03-23T20:19:42.121Z,167.03
2019-03-23T20:22:45.711Z,128.75
2019-03-23T20:25:49.207Z,96.17
2019-03-23T20:28:52.533Z,99.47
2019-03-23T20:31:55.986Z,92.47
2019-03-23T20:35:01.642Z,95.80
2019-03-23T20:38:04.970Z,94.40
2019-03-23T20:41:08.395Z,99.95
2019-03-23T20:44:11.724Z,93.22
2019-03-23T20:47:15.068Z,95.35
2019-03-23T20:50:18.391Z,92.72
2019-03-23T20:53:21.743Z,100.05
2019-03-23T20:56:25.088Z,100.33
2019-03-23T20:59:28.425Z,97.82
2019-03-23T21:02:31.749Z,107.00
2019-03-23T21:05:35.106Z,105.58
2019-03-23T21:08:38.422Z,107.05
2019-03-23T21:11:41.927Z,108.57
2019-03-23T21:14:45.347Z,116.25
2019-03-23T21:17:51.429Z,109.67
2019-03-23T21:20:53.783Z,105.50
2019-03-23T21:23:57.082Z,120.62
2019-03-23T21:27:02.263Z,115.28
2019-03-23T21:30:13.590Z,114.22
2019-03-23T21:33:16.933Z,111.90
2019-03-23T21:36:20.288Z,114.22
2019-03-23T21:39:23.735Z,112.05
2019-03-23T21:42:27.067Z,112.75
2019-03-23T21:45:30.438Z,106.40
2019-03-23T21:48:33.805Z,102.55
2019-03-23T21:51:37.119Z,109.07
2019-03-23T21:54:40.435Z,104.38
2019-03-23T21:57:43.795Z,102.17
2019-03-23T22:00:47.113Z,102.45
2019-03-23T22:03:50.425Z,99.70
2019-03-23T22:06:54.068Z,105.72
2019-03-23T22:09:57.640Z,108.50
2019-03-23T22:13:01.000Z,106.35
2019-03-23T22:16:05.398Z,107.60
2019-03-23T22:19:08.832Z,97.12
2019-03-23T22:22:12.176Z,105.07
2019-03-23T22:25:15.910Z,106.85
2019-03-23T22:28:19.244Z,99.72
2019-03-23T22:31:22.663Z,93.65
2019-03-23T22:34:25.999Z,102.07
2019-03-23T22:37:29.331Z,101.53
2019-03-23T22:40:32.647Z,106.03
2019-03-23T22:43:36.120Z,99.95
2019-03-23T22:46:39.478Z,105.70
2019-03-23T22:49:42.800Z,98.72
2019-03-23T22:52:46.171Z,101.60
2019-03-23T22:55:49.542Z,101.40
2019-03-23T22:58:52.853Z,106.05
2019-03-23T23:01:56.215Z,103.83
2019-03-23T23:04:59.534Z,112.35
2019-03-23T23:08:02.889Z,112.30
2019-03-23T23:11:06.286Z,143.30
2019-03-23T23:14:09.642Z,183.18
2019-03-23T23:17:12.999Z,224.62
2019-03-23T23:20:16.900Z,103.62
2019-03-23T23:23:20.219Z,103.85
2019-03-23T23:26:23.537Z,101.80
2019-03-23T23:29:29.115Z,103.17
2019-03-23T23:32:32.552Z,107.67
2019-03-23T23:35:36.156Z,101.40
2019-03-23T23:38:39.498Z,106.03
2019-03-23T23:41:42.990Z,100.20
2019-03-23T23:44:46.361Z,105.67
2019-03-23T23:47:49.812Z,102.87
2019-03-23T23:50:53.842Z,101.82
2019-03-23T23:53:57.193Z,105.43
2019-03-23T23:57:00.537Z,103.92
